Belle Mead, New Jersey
Current Conditions -  °F | °C
As of 6:53 AM on Tuesday 27 Jan 2015 (Local Time) from KSMQ Reporting Station
Light Snow Light Snow  
Wind Chill: 15°   Ceiling: 2600
Heat Index: 24°   Visibility: 2mi
Dew Point: 19°   Wind: 8mph
Humidity: 81%   Direction: 330°NNW
Pressure: 29.7"   Gusts: NA
Location:  40.47°N, 74.66°W
Report Text: KSMQ 271153Z AUTO 33007KT 2SM -SN OVC026 M04/M07 A2970 RMK AO2 SLP059 P0000 60000 T10441072 11033 21050 53003 TSNO
Loading
Personal Weather Stations






























Interactive Weather Map New forecast layout! Learn more

10-Day Weather Forecast

Advertisements
Track Severe Weather on mobile